createdAt,value
2019-02-12T00:00:14.161Z,82.06
2019-02-12T00:01:13.938Z,81.86
2019-02-12T00:02:13.348Z,81.81
2019-02-12T00:03:13.425Z,81.79
2019-02-12T00:04:15.137Z,81.82
2019-02-12T00:05:13.975Z,81.7
2019-02-12T00:06:14.077Z,81.68
2019-02-12T00:07:13.796Z,81.78
2019-02-12T00:08:13.588Z,81.67
2019-02-12T00:09:13.300Z,81.64
2019-02-12T00:10:13.787Z,81.64
2019-02-12T00:11:13.310Z,81.62
2019-02-12T00:12:13.521Z,81.77
2019-02-12T00:13:13.709Z,81.63
2019-02-12T00:14:14.025Z,81.7
2019-02-12T00:15:13.514Z,81.72
2019-02-12T00:16:13.623Z,81.65
2019-02-12T00:17:14.257Z,81.74
2019-02-12T00:18:13.396Z,81.7
2019-02-12T00:19:13.613Z,81.81
2019-02-12T00:20:13.963Z,81.78
2019-02-12T00:21:13.372Z,81.85
2019-02-12T00:22:13.403Z,81.9
2019-02-12T00:23:13.313Z,81.95
2019-02-12T00:24:15.112Z,81.98
2019-02-12T00:25:13.988Z,82.06
2019-02-12T00:26:14.514Z,82.09
2019-02-12T00:27:13.597Z,82.14
2019-02-12T00:28:14.116Z,82.23
2019-02-12T00:29:13.507Z,82.21
2019-02-12T00:30:13.382Z,82.29
2019-02-12T00:31:13.304Z,82.16
2019-02-12T00:32:13.734Z,82.3
2019-02-12T00:33:13.848Z,82.5
2019-02-12T00:34:13.539Z,82.71
2019-02-12T00:35:13.746Z,82.64
2019-02-12T00:36:13.760Z,82.49
2019-02-12T00:37:13.686Z,82.38
2019-02-12T00:38:13.671Z,82.33
2019-02-12T00:39:13.393Z,82.37
2019-02-12T00:40:13.413Z,82.34
2019-02-12T00:41:13.458Z,82.24
2019-02-12T00:42:13.492Z,82.29
2019-02-12T00:43:13.411Z,82.16
2019-02-12T00:44:13.275Z,82.22
2019-02-12T00:45:13.611Z,82.17
2019-02-12T00:46:13.265Z,82.28
2019-02-12T00:47:13.263Z,82.17
2019-02-12T00:48:13.437Z,82.08
2019-02-12T00:49:13.448Z,82.16
2019-02-12T00:50:13.917Z,82.08
2019-02-12T00:51:18.236Z,82.13
2019-02-12T00:52:13.326Z,82.21
2019-02-12T00:53:13.464Z,82.17
2019-02-12T00:54:13.186Z,82.16
2019-02-12T00:55:15.058Z,82.41
2019-02-12T00:56:13.304Z,82.42
2019-02-12T00:57:13.501Z,82.6
2019-02-12T00:58:14.631Z,82.68
2019-02-12T00:59:13.703Z,82.64
2019-02-12T01:00:14.956Z,82.57
2019-02-12T01:01:13.425Z,82.73
2019-02-12T01:02:13.685Z,82.41
2019-02-12T01:03:13.435Z,82.62
2019-02-12T01:04:13.569Z,82.31
2019-02-12T01:05:13.853Z,82.35
2019-02-12T01:06:13.190Z,82.44
2019-02-12T01:07:13.462Z,82.58
2019-02-12T01:08:13.658Z,82.47
2019-02-12T01:09:13.173Z,82.33
2019-02-12T01:10:15.081Z,82.38
2019-02-12T01:11:13.192Z,82.35
2019-02-12T01:12:14.000Z,82.34
2019-02-12T01:13:13.283Z,82.2
2019-02-12T01:14:13.908Z,82.15
2019-02-12T01:15:13.548Z,82.23
2019-02-12T01:16:13.503Z,82.19
2019-02-12T01:17:13.416Z,82.1
2019-02-12T01:18:13.626Z,82.13
2019-02-12T01:19:14.243Z,82.04
2019-02-12T01:20:13.463Z,82.06
2019-02-12T01:21:14.159Z,82.15
2019-02-12T01:22:13.218Z,81.98
2019-02-12T01:23:13.303Z,82.12
2019-02-12T01:24:13.209Z,81.92
2019-02-12T01:25:13.469Z,81.73
2019-02-12T01:26:13.183Z,81.68
2019-02-12T01:27:13.001Z,81.72
2019-02-12T01:28:15.056Z,81.75
2019-02-12T01:29:13.621Z,81.88
2019-02-12T01:30:13.703Z,82.02
2019-02-12T01:31:14.235Z,82.1
2019-02-12T01:32:13.822Z,81.93
2019-02-12T01:33:13.424Z,81.9
2019-02-12T01:34:13.514Z,82.05
2019-02-12T01:35:14.048Z,81.74
2019-02-12T01:36:14.057Z,81.45
2019-02-12T01:37:13.545Z,81.54
2019-02-12T01:38:13.408Z,81.35
2019-02-12T01:39:15.006Z,81.39
2019-02-12T01:40:13.181Z,81.14
2019-02-12T01:41:15.001Z,81.2
2019-02-12T01:42:13.615Z,81.57
2019-02-12T01:43:13.993Z,81.52
2019-02-12T01:44:14.721Z,81.64
2019-02-12T01:45:13.654Z,81.52
2019-02-12T01:46:14.989Z,81.56
2019-02-12T01:47:13.134Z,81.65
2019-02-12T01:48:13.527Z,81.71
2019-02-12T01:49:13.524Z,81.62
2019-02-12T01:50:13.697Z,81.57
2019-02-12T01:51:13.850Z,81.5
2019-02-12T01:52:14.467Z,81.55
2019-02-12T01:53:13.258Z,81.3
2019-02-12T01:54:13.450Z,81.35
2019-02-12T01:55:13.290Z,81.26
2019-02-12T01:56:13.112Z,81.28
2019-02-12T01:57:13.894Z,81.3
2019-02-12T01:58:14.060Z,81.25
2019-02-12T01:59:13.485Z,81.3
2019-02-12T02:00:14.518Z,81.53
2019-02-12T02:01:13.714Z,81.49
2019-02-12T02:02:13.513Z,81.64
2019-02-12T02:03:13.245Z,81.61
2019-02-12T02:04:13.170Z,81.68
2019-02-12T02:05:13.834Z,81.61
2019-02-12T02:06:13.154Z,81.55
2019-02-12T02:07:13.439Z,81.85
2019-02-12T02:08:14.999Z,81.79
2019-02-12T02:09:13.165Z,82.05
2019-02-12T02:10:13.314Z,81.96
2019-02-12T02:11:13.627Z,82.06
2019-02-12T02:12:13.469Z,82.07
2019-02-12T02:13:14.282Z,82.01
2019-02-12T02:14:13.365Z,82.06
2019-02-12T02:15:13.500Z,82.14
2019-02-12T02:16:13.263Z,82.05
2019-02-12T02:17:13.513Z,82.19
2019-02-12T02:18:13.272Z,82.19
2019-02-12T02:19:13.297Z,82.34
2019-02-12T02:20:13.432Z,82.3
2019-02-12T02:21:13.181Z,82.36
2019-02-12T02:22:14.265Z,82.21
2019-02-12T02:23:13.078Z,82.06
2019-02-12T02:24:13.199Z,82.12
2019-02-12T02:25:13.350Z,82.16
2019-02-12T02:26:13.168Z,81.99
2019-02-12T02:27:13.246Z,82.02
2019-02-12T02:28:13.368Z,81.84
2019-02-12T02:29:13.251Z,81.7
2019-02-12T02:30:13.623Z,81.62
2019-02-12T02:31:13.397Z,81.71
2019-02-12T02:32:14.918Z,81.84
2019-02-12T02:33:13.200Z,81.86
2019-02-12T02:34:13.416Z,81.92
2019-02-12T02:35:13.137Z,82.04
2019-02-12T02:36:13.295Z,81.77
2019-02-12T02:37:13.198Z,81.79
2019-02-12T02:38:13.067Z,81.8
2019-02-12T02:39:13.164Z,81.8
2019-02-12T02:40:13.211Z,81.96
2019-02-12T02:41:14.379Z,81.96
2019-02-12T02:42:13.561Z,82.42
2019-02-12T02:43:13.467Z,82.27
2019-02-12T02:44:13.042Z,82.56
2019-02-12T02:45:13.321Z,82.68
2019-02-12T02:46:13.040Z,82.69
2019-02-12T02:47:13.596Z,82.76
2019-02-12T02:48:13.179Z,82.43
2019-02-12T02:49:13.710Z,82.2
2019-02-12T02:50:14.269Z,82.48
2019-02-12T02:51:13.925Z,82.37
2019-02-12T02:52:14.897Z,82.35
2019-02-12T02:53:13.534Z,82.53
2019-02-12T02:54:13.067Z,82.59
2019-02-12T02:55:13.251Z,82.57
2019-02-12T02:56:13.075Z,82.47
2019-02-12T02:57:13.791Z,82.55
2019-02-12T02:58:13.046Z,82.55
2019-02-12T02:59:13.474Z,82.61
2019-02-12T03:00:13.796Z,82.41
2019-02-12T03:01:13.119Z,82.3
2019-02-12T03:02:13.504Z,82.34
2019-02-12T03:03:13.166Z,82.42
2019-02-12T03:04:13.304Z,82.18
2019-02-12T03:05:13.215Z,82.58
2019-02-12T03:06:13.139Z,82.34
2019-02-12T03:07:13.543Z,82.3
2019-02-12T03:08:13.644Z,82.44
2019-02-12T03:09:13.067Z,82.66
2019-02-12T03:10:13.658Z,82.56
2019-02-12T03:11:13.456Z,82.58
2019-02-12T03:12:13.369Z,82.75
2019-02-12T03:13:13.260Z,82.53
2019-02-12T03:14:13.210Z,82.59
2019-02-12T03:15:13.215Z,82.52
2019-02-12T03:16:13.395Z,82.68
2019-02-12T03:17:14.856Z,82.69
2019-02-12T03:18:13.359Z,82.55
2019-02-12T03:19:13.145Z,82.76
2019-02-12T03:20:13.420Z,82.82
2019-02-12T03:21:13.425Z,82.59
2019-02-12T03:22:13.315Z,82.91
2019-02-12T03:23:14.917Z,82.83
2019-02-12T03:24:13.640Z,82.85
2019-02-12T03:25:12.981Z,82.86
2019-02-12T03:26:12.993Z,82.76
2019-02-12T03:27:12.831Z,82.68
2019-02-12T03:28:13.354Z,82.53
2019-02-12T03:29:13.262Z,82.64
2019-02-12T03:30:13.589Z,82.6
2019-02-12T03:31:13.293Z,82.57
2019-02-12T03:32:13.147Z,82.6
2019-02-12T03:33:13.431Z,82.52
2019-02-12T03:34:13.337Z,82.6
2019-02-12T03:35:13.771Z,82.68
2019-02-12T03:36:13.090Z,82.76
2019-02-12T03:37:13.069Z,82.5
2019-02-12T03:38:13.343Z,82.55
2019-02-12T03:39:13.747Z,82.54
2019-02-12T03:40:13.059Z,82.47
2019-02-12T03:41:13.151Z,83.07
2019-02-12T03:42:13.606Z,82.93
2019-02-12T03:43:12.996Z,83.11
2019-02-12T03:44:13.253Z,83.27
2019-02-12T03:45:13.045Z,82.79
2019-02-12T03:46:13.280Z,82.73
2019-02-12T03:47:13.496Z,82.73
2019-02-12T03:48:13.595Z,82.9
2019-02-12T03:49:13.286Z,82.55
2019-02-12T03:50:13.099Z,82.51
2019-02-12T03:51:13.008Z,82.64
2019-02-12T03:52:13.480Z,82.73
2019-02-12T03:53:13.069Z,83.07
2019-02-12T03:54:13.061Z,82.9
2019-02-12T03:55:13.376Z,83.15
2019-02-12T03:56:13.039Z,83.56
2019-02-12T03:57:13.052Z,83.12
2019-02-12T03:58:12.961Z,82.92
2019-02-12T03:59:13.476Z,83.34
2019-02-12T04:00:13.675Z,83.68
2019-02-12T04:01:13.054Z,83.93
2019-02-12T04:02:13.134Z,84.1
2019-02-12T04:03:13.154Z,83.54
2019-02-12T04:04:12.919Z,83.24
2019-02-12T04:05:14.774Z,83.72
2019-02-12T04:06:13.827Z,83.8
2019-02-12T04:07:13.521Z,83.78
2019-02-12T04:08:13.099Z,83.78
2019-02-12T04:09:13.865Z,83.73
2019-02-12T04:10:13.108Z,83.84
2019-02-12T04:11:13.024Z,83.4
2019-02-12T04:12:13.156Z,83.47
2019-02-12T04:13:13.145Z,83.28
2019-02-12T04:14:13.002Z,83.59
2019-02-12T04:15:12.971Z,83.74
2019-02-12T04:16:13.277Z,83.54
2019-02-12T04:17:13.027Z,83.28
2019-02-12T04:18:12.950Z,83.09
2019-02-12T04:19:13.020Z,83.11
2019-02-12T04:20:12.983Z,82.96
2019-02-12T04:21:12.938Z,83.58
2019-02-12T04:22:23.462Z,83.55
2019-02-12T04:23:13.524Z,83.41
2019-02-12T04:24:13.314Z,83.33
2019-02-12T04:25:12.982Z,83.41
2019-02-12T04:26:13.027Z,83.64
2019-02-12T04:27:13.283Z,83.62
2019-02-12T04:28:13.963Z,83.57
2019-02-12T04:29:13.258Z,83.63
2019-02-12T04:30:12.998Z,83.39
2019-02-12T04:31:13.507Z,83.5
2019-02-12T04:32:13.064Z,83.17
2019-02-12T04:33:14.756Z,83.07
2019-02-12T04:34:13.110Z,83.23
2019-02-12T04:35:13.203Z,83.08
2019-02-12T04:36:13.120Z,83.22
2019-02-12T04:37:12.968Z,83.47
2019-02-12T04:38:12.983Z,83.49
2019-02-12T04:39:12.847Z,83.35
2019-02-12T04:40:13.259Z,83.46
2019-02-12T04:41:12.917Z,83.58
2019-02-12T04:42:12.949Z,83.59
2019-02-12T04:43:13.447Z,83.48
2019-02-12T04:44:13.042Z,83.49
2019-02-12T04:45:13.799Z,83.92
2019-02-12T04:46:13.087Z,83.72
2019-02-12T04:47:13.283Z,83.94
2019-02-12T04:48:13.212Z,83.6
2019-02-12T04:49:13.375Z,83.47
2019-02-12T04:50:13.989Z,83.54
2019-02-12T04:51:13.292Z,83.27
2019-02-12T04:52:13.188Z,83.26
2019-02-12T04:53:13.993Z,83.43
2019-02-12T04:54:13.330Z,83.57
2019-02-12T04:55:13.106Z,83.8
2019-02-12T04:56:13.323Z,83.76
2019-02-12T04:57:13.054Z,83.7
2019-02-12T04:58:13.098Z,83.53
2019-02-12T04:59:14.719Z,83.42
2019-02-12T05:00:13.024Z,83.74
2019-02-12T05:01:13.116Z,83.75
2019-02-12T05:02:14.694Z,83.8
2019-02-12T05:03:13.891Z,84.01
2019-02-12T05:04:13.090Z,83.55
2019-02-12T05:05:13.129Z,83.43
2019-02-12T05:06:13.209Z,83.33
2019-02-12T05:07:13.208Z,83.3
2019-02-12T05:08:14.086Z,83.18
2019-02-12T05:09:13.339Z,83.35
2019-02-12T05:10:13.834Z,83.37
2019-02-12T05:11:12.976Z,83.38
2019-02-12T05:12:13.051Z,83.18
2019-02-12T05:13:13.540Z,83.29
2019-02-12T05:14:14.679Z,83.28
2019-02-12T05:15:12.988Z,83.55
2019-02-12T05:16:13.557Z,83.27
2019-02-12T05:17:13.076Z,83.52
2019-02-12T05:18:13.275Z,83.78
2019-02-12T05:19:14.590Z,83.63
2019-02-12T05:20:13.107Z,83.92
2019-02-12T05:21:13.497Z,83.97
2019-02-12T05:22:13.284Z,83.91
2019-02-12T05:23:13.115Z,83.95
2019-02-12T05:24:12.819Z,84
2019-02-12T05:25:13.852Z,83.93
2019-02-12T05:26:13.745Z,83.96
2019-02-12T05:27:12.859Z,83.88
2019-02-12T05:28:12.832Z,84.1
2019-02-12T05:29:13.212Z,84.15
2019-02-12T05:30:13.235Z,84.1
2019-02-12T05:31:13.520Z,84.1
2019-02-12T05:32:13.128Z,84.17
2019-02-12T05:33:13.472Z,83.94
2019-02-12T05:34:13.588Z,83.88
2019-02-12T05:35:13.419Z,83.84
2019-02-12T05:36:12.903Z,84.07
2019-02-12T05:37:12.942Z,84.07
2019-02-12T05:38:12.768Z,84.23
2019-02-12T05:39:12.830Z,84.32
2019-02-12T05:40:13.118Z,84.59
2019-02-12T05:41:13.324Z,84.83
2019-02-12T05:42:14.653Z,84.36
2019-02-12T05:43:12.978Z,84.06
2019-02-12T05:44:13.000Z,84.43
2019-02-12T05:45:12.990Z,84.6
2019-02-12T05:46:14.638Z,84.25
2019-02-12T05:47:13.720Z,83.93
2019-02-12T05:48:12.999Z,84.25
2019-02-12T05:49:12.986Z,84.17
2019-02-12T05:50:13.127Z,84.24
2019-02-12T05:51:13.200Z,84.15
2019-02-12T05:52:13.160Z,84.11
2019-02-12T05:53:13.049Z,84.17
2019-02-12T05:54:12.988Z,84.3
2019-02-12T05:55:13.307Z,84.19
2019-02-12T05:56:13.099Z,83.89
2019-02-12T05:57:12.777Z,83.92
2019-02-12T05:58:12.873Z,84.18
2019-02-12T05:59:13.132Z,84.12
2019-02-12T06:00:13.052Z,84.14
2019-02-12T06:01:14.605Z,84.1
2019-02-12T06:02:13.027Z,84.23
2019-02-12T06:03:13.015Z,84.14
2019-02-12T06:04:12.847Z,84.17
2019-02-12T06:05:13.074Z,84.05
2019-02-12T06:06:13.077Z,83.74
2019-02-12T06:07:13.280Z,83.77
2019-02-12T06:08:13.611Z,84.06
2019-02-12T06:09:13.097Z,84.27
2019-02-12T06:10:13.106Z,84.39
2019-02-12T06:11:13.170Z,84.23
2019-02-12T06:12:13.364Z,84.26
2019-02-12T06:13:13.074Z,84.56
2019-02-12T06:14:13.041Z,84.27
2019-02-12T06:15:13.346Z,84.12
2019-02-12T06:16:13.059Z,84.34
2019-02-12T06:17:13.120Z,84.44
2019-02-12T06:18:13.464Z,84.39
2019-02-12T06:19:15.110Z,84.22
2019-02-12T06:20:13.069Z,84.25
2019-02-12T06:21:13.073Z,84.1
2019-02-12T06:22:13.164Z,84.13
2019-02-12T06:23:13.033Z,84.41
2019-02-12T06:24:13.150Z,84.42
2019-02-12T06:25:13.719Z,84.32
2019-02-12T06:26:13.457Z,84.16
2019-02-12T06:27:12.799Z,84.14
2019-02-12T06:28:13.046Z,84.12
2019-02-12T06:29:14.566Z,83.98
2019-02-12T06:30:13.187Z,83.79
2019-02-12T06:31:12.814Z,83.94
2019-02-12T06:32:13.149Z,83.86
2019-02-12T06:33:13.036Z,84.04
2019-02-12T06:34:13.054Z,83.99
2019-02-12T06:35:13.067Z,84.11
2019-02-12T06:36:12.908Z,83.91
2019-02-12T06:37:12.856Z,84.05
2019-02-12T06:38:12.727Z,84.21
2019-02-12T06:39:13.097Z,84.03
2019-02-12T06:40:13.045Z,84.13
2019-02-12T06:41:12.844Z,84.24
2019-02-12T06:42:12.806Z,84.05
2019-02-12T06:43:14.544Z,84.12
2019-02-12T06:44:13.029Z,84.06
2019-02-12T06:45:13.051Z,84.23
2019-02-12T06:46:14.577Z,84.23
2019-02-12T06:47:13.147Z,84.02
2019-02-12T06:48:13.035Z,84.14
2019-02-12T06:49:13.668Z,84.1
2019-02-12T06:50:13.074Z,84.2
2019-02-12T06:51:13.522Z,84.43
2019-02-12T06:52:13.142Z,85.02
2019-02-12T06:53:13.289Z,84.96
2019-02-12T06:54:13.082Z,84.9
2019-02-12T06:55:12.688Z,84.92
2019-02-12T06:56:12.998Z,85.22
2019-02-12T06:57:13.132Z,85.14
2019-02-12T06:58:13.114Z,85.4
2019-02-12T06:59:14.525Z,85.33
2019-02-12T07:00:13.150Z,85.44
2019-02-12T07:01:13.033Z,85.28
2019-02-12T07:02:13.330Z,85.39
2019-02-12T07:03:13.565Z,85.86
2019-02-12T07:04:12.881Z,85.58
2019-02-12T07:05:12.783Z,85.16
2019-02-12T07:06:13.118Z,85.32
2019-02-12T07:07:13.063Z,85.63
2019-02-12T07:08:12.702Z,85.41
2019-02-12T07:09:12.841Z,85.62
2019-02-12T07:10:13.020Z,85.64
2019-02-12T07:11:12.778Z,85.17
2019-02-12T07:12:14.521Z,85.26
2019-02-12T07:13:13.098Z,85.08
2019-02-12T07:14:13.010Z,85.45
2019-02-12T07:15:13.118Z,85.26
2019-02-12T07:16:13.345Z,85.04
2019-02-12T07:17:12.671Z,85.02
2019-02-12T07:18:13.034Z,85.46
2019-02-12T07:19:12.742Z,85.82
2019-02-12T07:20:12.850Z,85.81
2019-02-12T07:21:13.107Z,85.52
2019-02-12T07:22:12.710Z,85.47
2019-02-12T07:23:21.781Z,85.49
2019-02-12T07:24:13.075Z,85.19
2019-02-12T07:25:13.560Z,85.08
2019-02-12T07:26:12.993Z,85.28
2019-02-12T07:27:13.112Z,85.07
2019-02-12T07:28:12.665Z,84.98
2019-02-12T07:29:12.713Z,85.19
2019-02-12T07:30:12.665Z,85.12
2019-02-12T07:31:13.019Z,85.15
2019-02-12T07:32:13.575Z,85.57
2019-02-12T07:33:13.774Z,85.29
2019-02-12T07:34:12.770Z,85.15
2019-02-12T07:35:14.478Z,85.37
2019-02-12T07:36:12.955Z,85.28
2019-02-12T07:37:12.673Z,85.28
2019-02-12T07:38:13.099Z,85.57
2019-02-12T07:39:13.063Z,85.5
2019-02-12T07:40:13.190Z,85.35
2019-02-12T07:41:20.776Z,85.56
2019-02-12T07:42:12.679Z,85.42
2019-02-12T07:43:12.625Z,85.28
2019-02-12T07:44:14.539Z,85.36
2019-02-12T07:45:12.793Z,85.31
2019-02-12T07:46:12.717Z,85.21
2019-02-12T07:47:13.854Z,84.96
2019-02-12T07:48:13.324Z,85.09
2019-02-12T07:49:12.660Z,85.56
2019-02-12T07:50:12.941Z,85.25
2019-02-12T07:51:13.061Z,85
2019-02-12T07:52:12.594Z,85.26
2019-02-12T07:53:13.003Z,85.42
2019-02-12T07:54:12.576Z,85.32
2019-02-12T07:55:12.649Z,85.2
2019-02-12T07:56:13.012Z,85.07
2019-02-12T07:57:12.567Z,85.04
2019-02-12T07:58:13.094Z,85.19
2019-02-12T07:59:12.616Z,85.48
2019-02-12T08:00:12.939Z,85.35
2019-02-12T08:01:12.563Z,85.29
2019-02-12T08:02:13.232Z,85.36
2019-02-12T08:03:14.436Z,85.14
2019-02-12T08:04:13.079Z,85.2
2019-02-12T08:05:12.631Z,85.19
2019-02-12T08:06:13.048Z,85.01
2019-02-12T08:07:13.164Z,85.06
2019-02-12T08:08:12.743Z,85.21
2019-02-12T08:09:13.057Z,85.31
2019-02-12T08:10:12.702Z,85.37
2019-02-12T08:11:12.977Z,85.21
2019-02-12T08:12:12.652Z,85.26
2019-02-12T08:13:13.127Z,85.08
2019-02-12T08:14:12.897Z,85.19
2019-02-12T08:15:12.741Z,85.19
2019-02-12T08:16:12.826Z,85.08
2019-02-12T08:17:13.117Z,85.11
2019-02-12T08:18:12.690Z,85.12
2019-02-12T08:19:13.178Z,84.97
2019-02-12T08:20:12.477Z,85.21
2019-02-12T08:21:12.737Z,85.06
2019-02-12T08:22:14.447Z,85.39
2019-02-12T08:23:12.874Z,85.04
2019-02-12T08:24:13.203Z,84.76
2019-02-12T08:25:13.306Z,84.72
2019-02-12T08:26:12.770Z,85.12
2019-02-12T08:27:12.985Z,85.37
2019-02-12T08:28:12.575Z,85.29
2019-02-12T08:29:13.129Z,85.47
2019-02-12T08:30:12.717Z,85.36
2019-02-12T08:31:12.815Z,85.14
2019-02-12T08:32:12.613Z,85.28
2019-02-12T08:33:12.828Z,85.27
2019-02-12T08:34:12.934Z,85.27
2019-02-12T08:35:12.812Z,85.09
2019-02-12T08:36:12.586Z,84.86
2019-02-12T08:37:14.367Z,85.11
2019-02-12T08:38:12.857Z,84.96
2019-02-12T08:39:13.678Z,84.69
2019-02-12T08:40:13.317Z,84.81
2019-02-12T08:41:12.761Z,84.99
2019-02-12T08:42:12.640Z,85.12
2019-02-12T08:43:14.359Z,85.17
2019-02-12T08:44:12.883Z,84.8
2019-02-12T08:45:12.351Z,84.8
2019-02-12T08:46:12.961Z,84.72
2019-02-12T08:47:12.807Z,84.84
2019-02-12T08:48:13.034Z,85.15
2019-02-12T08:49:12.593Z,85.03
2019-02-12T08:50:13.140Z,84.97
2019-02-12T08:51:13.053Z,84.84
2019-02-12T08:52:13.138Z,84.88
2019-02-12T08:53:12.625Z,84.77
2019-02-12T08:54:12.641Z,84.97
2019-02-12T08:55:12.510Z,85.07
2019-02-12T08:56:14.560Z,84.83
2019-02-12T08:57:12.494Z,84.77
2019-02-12T08:58:12.715Z,84.66
2019-02-12T08:59:12.506Z,84.84
2019-02-12T09:00:13.100Z,84.82
2019-02-12T09:01:13.274Z,84.88
2019-02-12T09:02:13.323Z,84.81
2019-02-12T09:03:12.912Z,84.63
2019-02-12T09:04:12.516Z,84.67
2019-02-12T09:05:13.039Z,84.62
2019-02-12T09:06:12.694Z,84.56
2019-02-12T09:07:12.468Z,84.48
2019-02-12T09:08:12.749Z,84.58
2019-02-12T09:09:12.864Z,84.47
2019-02-12T09:10:12.764Z,84.52
2019-02-12T09:11:12.658Z,84.51
2019-02-12T09:12:12.487Z,84.29
2019-02-12T09:13:13.398Z,84.06
2019-02-12T09:14:12.789Z,84.1
2019-02-12T09:15:13.719Z,83.83
2019-02-12T09:16:12.469Z,83.8
2019-02-12T09:17:12.559Z,84.03
2019-02-12T09:18:12.541Z,83.81
2019-02-12T09:19:12.582Z,83.9
2019-02-12T09:20:12.832Z,83.89
2019-02-12T09:21:12.821Z,83.77
2019-02-12T09:22:12.735Z,83.77
2019-02-12T09:23:12.736Z,83.83
2019-02-12T09:24:14.660Z,83.67
2019-02-12T09:25:13.355Z,83.71
2019-02-12T09:26:12.754Z,83.9
2019-02-12T09:27:14.315Z,83.92
2019-02-12T09:28:12.655Z,84.12
2019-02-12T09:29:12.580Z,84.36
2019-02-12T09:30:12.786Z,84.22
2019-02-12T09:31:12.711Z,83.84
2019-02-12T09:32:12.822Z,83.58
2019-02-12T09:33:14.312Z,83.43
2019-02-12T09:34:12.426Z,83.37
2019-02-12T09:35:12.813Z,83.28
2019-02-12T09:36:12.846Z,83.28
2019-02-12T09:37:12.940Z,83.37
2019-02-12T09:38:12.743Z,83.54
2019-02-12T09:39:12.939Z,83.43
2019-02-12T09:40:19.636Z,83.25
2019-02-12T09:41:12.869Z,83.04
2019-02-12T09:42:12.870Z,82.69
2019-02-12T09:43:13.294Z,82.71
2019-02-12T09:44:12.992Z,82.93
2019-02-12T09:45:13.116Z,82.74
2019-02-12T09:46:12.453Z,82.69
2019-02-12T09:47:13.016Z,83.02
2019-02-12T09:48:12.561Z,82.86
2019-02-12T09:49:12.923Z,82.63
2019-02-12T09:50:12.638Z,82.24
2019-02-12T09:51:13.127Z,82.26
2019-02-12T09:52:13.436Z,81.83
2019-02-12T09:53:13.871Z,81.94
2019-02-12T09:54:12.761Z,81.75
2019-02-12T09:55:12.807Z,81.8
2019-02-12T09:56:12.762Z,81.65
2019-02-12T09:57:12.970Z,81.53
2019-02-12T09:58:13.012Z,81.38
2019-02-12T09:59:12.677Z,81.72
2019-02-12T10:00:13.095Z,81.84
2019-02-12T10:01:12.791Z,81.93
2019-02-12T10:02:13.678Z,82.46
2019-02-12T10:03:12.709Z,82.66
2019-02-12T10:04:12.817Z,82.28
2019-02-12T10:05:12.390Z,81.75
2019-02-12T10:06:24.477Z,81.9
2019-02-12T10:07:13.055Z,81.75
2019-02-12T10:08:12.576Z,81.74
2019-02-12T10:09:12.857Z,81.35
2019-02-12T10:10:12.525Z,81.28
2019-02-12T10:11:12.444Z,81.3
2019-02-12T10:12:12.542Z,81.28
2019-02-12T10:13:12.771Z,80.96
2019-02-12T10:14:12.699Z,80.98
2019-02-12T10:15:13.122Z,81.04
2019-02-12T10:16:12.995Z,81.29
2019-02-12T10:17:12.891Z,80.92
2019-02-12T10:18:13.016Z,80.82
2019-02-12T10:19:12.811Z,80.77
2019-02-12T10:20:13.139Z,81.09
2019-02-12T10:21:12.386Z,80.86
2019-02-12T10:22:12.685Z,80.77
2019-02-12T10:23:12.936Z,80.75
2019-02-12T10:25:13.289Z,80.85
2019-02-12T10:26:12.550Z,80.83
2019-02-12T10:27:12.754Z,80.88
2019-02-12T10:28:13.228Z,80.71
2019-02-12T10:29:12.990Z,81.14
2019-02-12T10:30:12.558Z,81.19
2019-02-12T10:31:12.775Z,81.07
2019-02-12T10:32:12.697Z,80.79
2019-02-12T10:33:12.354Z,80.69
2019-02-12T10:34:12.700Z,80.69
2019-02-12T10:35:12.529Z,80.23
2019-02-12T10:36:12.775Z,80.05
2019-02-12T10:37:13.129Z,80.2
2019-02-12T10:39:12.841Z,80.39
2019-02-12T10:40:14.015Z,80.52
2019-02-12T10:41:12.664Z,80.32
2019-02-12T10:42:12.535Z,79.89
2019-02-12T10:43:12.484Z,79.03
2019-02-12T10:44:12.977Z,78.88
2019-02-12T10:45:13.092Z,78.72
2019-02-12T10:46:14.200Z,79.17
2019-02-12T10:47:12.589Z,78.48
2019-02-12T10:48:12.494Z,79.09
2019-02-12T10:49:12.323Z,79.19
2019-02-12T10:50:12.712Z,78.77
2019-02-12T10:51:12.502Z,78.79
2019-02-12T10:52:12.827Z,79.21
2019-02-12T10:53:12.967Z,79.12
2019-02-12T10:54:13.916Z,78.38
2019-02-12T10:55:13.125Z,78.15
2019-02-12T10:56:14.177Z,78.24
2019-02-12T10:57:13.384Z,77.81
2019-02-12T10:58:12.442Z,77.66
2019-02-12T10:59:14.666Z,77.29
2019-02-12T11:00:13.581Z,77.28
2019-02-12T11:01:12.349Z,77.46
2019-02-12T11:02:12.579Z,77.16
2019-02-12T11:03:12.578Z,77.13
2019-02-12T11:04:12.683Z,76.03
2019-02-12T11:05:12.393Z,76.18
2019-02-12T11:06:12.376Z,75.59
2019-02-12T11:07:12.401Z,76.03
2019-02-12T11:08:13.755Z,75.14
2019-02-12T11:09:12.530Z,75.25
2019-02-12T11:10:12.846Z,75.24
2019-02-12T11:11:15.584Z,75.5
2019-02-12T11:12:12.672Z,76.11
2019-02-12T11:13:12.455Z,74.82
2019-02-12T11:14:12.699Z,74.95
2019-02-12T11:15:12.574Z,75.52
2019-02-12T11:16:12.366Z,75.45
2019-02-12T11:17:13.341Z,75.75
2019-02-12T11:18:14.116Z,75.78
2019-02-12T11:19:12.685Z,75.55
2019-02-12T11:20:12.806Z,75.7
2019-02-12T11:21:12.648Z,75.85
2019-02-12T11:22:14.142Z,75.7
2019-02-12T11:23:12.315Z,75.14
2019-02-12T11:24:12.297Z,74.97
2019-02-12T11:25:12.519Z,74.51
2019-02-12T11:26:12.982Z,74.1
2019-02-12T11:27:13.589Z,72.6
2019-02-12T11:28:12.544Z,72.05
2019-02-12T11:29:12.760Z,72.62
2019-02-12T11:30:12.313Z,73.42
2019-02-12T11:31:12.677Z,73.21
2019-02-12T11:32:12.775Z,72.76
2019-02-12T11:33:12.884Z,72.95
2019-02-12T11:34:14.114Z,72.72
2019-02-12T11:35:12.898Z,72.61
2019-02-12T11:36:12.294Z,72.63
2019-02-12T11:37:12.438Z,72.67
2019-02-12T11:38:12.602Z,71.92
2019-02-12T11:39:12.287Z,72.36
2019-02-12T11:40:13.708Z,72.41
2019-02-12T11:41:12.303Z,72.61
2019-02-12T11:42:12.547Z,72.09
2019-02-12T11:43:12.542Z,71.26
2019-02-12T11:44:13.068Z,71.15
2019-02-12T11:45:12.658Z,68.84
2019-02-12T11:46:12.577Z,68.11
2019-02-12T11:47:12.575Z,69.12
2019-02-12T11:48:12.357Z,68.24
2019-02-12T11:49:12.236Z,67.7
2019-02-12T11:50:12.489Z,66.66
2019-02-12T11:51:12.452Z,66.47
2019-02-12T11:52:12.302Z,65.55
2019-02-12T11:53:12.701Z,65.55
2019-02-12T11:54:12.315Z,65.43
2019-02-12T11:55:12.724Z,64.7
2019-02-12T11:56:12.324Z,65.61
2019-02-12T11:57:12.750Z,64.97
2019-02-12T11:58:12.544Z,64.83
2019-02-12T11:59:12.362Z,64.84
2019-02-12T12:00:12.426Z,65.63
2019-02-12T12:01:12.570Z,65.59
2019-02-12T12:02:14.064Z,64.69
2019-02-12T12:03:12.563Z,66.23
2019-02-12T12:04:12.586Z,65.61
2019-02-12T12:05:12.580Z,65.36
2019-02-12T12:06:12.794Z,66.41
2019-02-12T12:07:12.334Z,65.85
2019-02-12T12:08:12.708Z,65.63
2019-02-12T12:09:12.226Z,64.87
2019-02-12T12:10:12.364Z,65.09
2019-02-12T12:11:12.188Z,65.4
2019-02-12T12:12:12.365Z,64.4
2019-02-12T12:13:12.297Z,64.84
2019-02-12T12:14:12.202Z,64.94
2019-02-12T12:15:12.221Z,64.32
2019-02-12T12:16:12.562Z,64.34
2019-02-12T12:17:12.175Z,63.86
2019-02-12T12:18:12.237Z,64.48
2019-02-12T12:19:14.030Z,64.21
2019-02-12T12:20:12.238Z,64.02
2019-02-12T12:21:12.308Z,64.27
2019-02-12T12:22:12.229Z,63.99
2019-02-12T12:23:12.202Z,64.31
2019-02-12T12:24:12.269Z,63.5
2019-02-12T12:25:12.531Z,63.18
2019-02-12T12:26:12.319Z,63.77
2019-02-12T12:27:12.651Z,63.69
2019-02-12T12:28:12.279Z,63.64
2019-02-12T12:29:12.550Z,63.78
2019-02-12T12:30:12.163Z,63.38
2019-02-12T12:31:12.673Z,62.78
2019-02-12T12:32:12.340Z,63.69
2019-02-12T12:33:12.577Z,63.42
2019-02-12T12:34:12.181Z,63.72
2019-02-12T12:35:12.498Z,62.42
2019-02-12T12:36:12.374Z,62.96
2019-02-12T12:37:12.172Z,63.22
2019-02-12T12:38:12.275Z,60.24
2019-02-12T12:39:12.540Z,61.47
2019-02-12T12:40:12.205Z,61.52
2019-02-12T12:41:12.739Z,61.99
2019-02-12T12:42:12.299Z,61.65
2019-02-12T12:43:13.347Z,62.04
2019-02-12T12:44:12.345Z,62.35
2019-02-12T12:45:12.183Z,62.69
2019-02-12T12:46:12.682Z,62.57
2019-02-12T12:47:13.342Z,62.84
2019-02-12T12:48:12.279Z,62.66
2019-02-12T12:49:12.241Z,62.12
2019-02-12T12:50:12.301Z,62.91
2019-02-12T12:51:12.240Z,63.7
2019-02-12T12:52:12.235Z,62.79
2019-02-12T12:53:12.219Z,63.25
2019-02-12T12:54:12.162Z,62.93
2019-02-12T12:55:12.142Z,63
2019-02-12T12:56:12.181Z,63.05
2019-02-12T12:57:13.166Z,62.83